createdAt,value
2023-03-29T00:00:22.035Z,1.27
2023-03-29T00:03:24.728Z,2.17
2023-03-29T00:06:31.153Z,1.85
2023-03-29T00:09:33.809Z,1.20
2023-03-29T00:12:37.730Z,1.48
2023-03-29T00:15:40.356Z,1.70
2023-03-29T00:18:42.887Z,1.52
2023-03-29T00:21:45.486Z,1.42
2023-03-29T00:24:49.163Z,2.08
2023-03-29T00:27:53.146Z,1.92
2023-03-29T00:31:04.397Z,1.20
2023-03-29T00:34:07.219Z,1.83
2023-03-29T00:37:09.984Z,1.58
2023-03-29T00:40:13.293Z,3.35
2023-03-29T00:43:17.384Z,0.90
2023-03-29T00:46:20.022Z,3.15
2023-03-29T00:49:22.631Z,1.60
2023-03-29T00:52:30.040Z,2.17
2023-03-29T00:55:34.929Z,1.95
2023-03-29T00:58:40.347Z,3.03
2023-03-29T01:01:46.466Z,2.72
2023-03-29T01:04:50.746Z,2.05
2023-03-29T01:07:57.947Z,1.73
2023-03-29T01:11:01.817Z,2.83
2023-03-29T01:14:06.529Z,2.08
2023-03-29T01:17:09.147Z,2.75
2023-03-29T01:20:14.217Z,2.10
2023-03-29T01:23:31.442Z,1.38
2023-03-29T01:26:40.425Z,1.65
2023-03-29T01:29:45.513Z,2.33
2023-03-29T01:32:50.481Z,2.05
2023-03-29T01:35:57.437Z,2.25
2023-03-29T01:39:00.573Z,2.50
2023-03-29T01:42:09.732Z,1.75
2023-03-29T01:45:18.494Z,2.05
2023-03-29T01:48:23.932Z,1.48
2023-03-29T01:51:27.297Z,2.75
2023-03-29T01:54:31.743Z,2.30
2023-03-29T01:57:34.312Z,2.90
2023-03-29T02:00:38.555Z,2.53
2023-03-29T02:03:43.184Z,3.00
2023-03-29T02:06:45.759Z,2.78
2023-03-29T02:09:48.875Z,1.58
2023-03-29T02:12:51.956Z,2.70
2023-03-29T02:15:56.574Z,5.00
2023-03-29T02:18:59.441Z,2.85
2023-03-29T02:22:03.877Z,2.47
2023-03-29T02:25:08.464Z,2.72
2023-03-29T02:28:11.028Z,2.15
2023-03-29T02:31:17.942Z,1.70
2023-03-29T02:34:22.293Z,7.15
2023-03-29T02:37:26.565Z,3.13
2023-03-29T02:40:29.116Z,2.42
2023-03-29T02:43:31.699Z,1.05
2023-03-29T02:46:37.761Z,2.15
2023-03-29T02:49:40.514Z,3.40
2023-03-29T02:52:46.119Z,3.33
2023-03-29T02:55:48.877Z,4.18
2023-03-29T02:58:51.443Z,1.60
2023-03-29T03:01:55.411Z,2.25
2023-03-29T03:04:59.125Z,2.25
2023-03-29T03:08:02.594Z,2.17
2023-03-29T03:11:05.376Z,2.03
2023-03-29T03:14:07.912Z,3.53
2023-03-29T03:17:11.829Z,2.08
2023-03-29T03:20:14.687Z,1.85
2023-03-29T03:23:17.638Z,1.92
2023-03-29T03:26:20.207Z,3.20
2023-03-29T03:29:23.208Z,2.55
2023-03-29T03:32:27.123Z,1.92
2023-03-29T03:35:29.668Z,2.75
2023-03-29T03:38:32.309Z,2.35
2023-03-29T03:41:34.937Z,2.33
2023-03-29T03:44:37.905Z,3.30
2023-03-29T03:47:42.197Z,2.45
2023-03-29T03:50:49.561Z,2.92
2023-03-29T03:53:52.089Z,2.30
2023-03-29T03:56:55.114Z,3.30
2023-03-29T03:59:58.901Z,3.35
2023-03-29T04:03:06.050Z,3.63
2023-03-29T04:06:09.640Z,3.45
2023-03-29T04:09:12.793Z,2.20
2023-03-29T04:12:15.720Z,2.33
2023-03-29T04:15:20.156Z,3.45
2023-03-29T04:18:24.441Z,2.22
2023-03-29T04:21:27.143Z,4.07
2023-03-29T04:24:29.675Z,2.47
2023-03-29T04:27:32.255Z,2.25
2023-03-29T04:30:34.846Z,1.95
2023-03-29T04:33:38.860Z,3.33
2023-03-29T04:36:41.426Z,2.97
2023-03-29T04:39:44.725Z,1.50
2023-03-29T04:42:47.306Z,3.05
2023-03-29T04:45:50.064Z,2.17
2023-03-29T04:48:54.027Z,2.53
2023-03-29T04:51:57.010Z,3.70
2023-03-29T04:54:59.543Z,1.65
2023-03-29T04:58:02.604Z,2.75
2023-03-29T05:01:05.721Z,2.00
2023-03-29T05:04:12.561Z,3.95
2023-03-29T05:07:15.605Z,2.67
2023-03-29T05:10:18.376Z,2.85
2023-03-29T05:13:20.928Z,4.63
2023-03-29T05:16:24.454Z,3.47
2023-03-29T05:19:28.419Z,3.03
2023-03-29T05:22:31.417Z,1.85
2023-03-29T05:25:34.306Z,2.75
2023-03-29T05:28:36.873Z,2.05
2023-03-29T05:31:39.527Z,2.28
2023-03-29T05:34:43.558Z,2.70
2023-03-29T05:37:47.120Z,2.03
2023-03-29T05:40:49.877Z,3.13
2023-03-29T05:43:52.490Z,3.15
2023-03-29T05:46:55.073Z,2.20
2023-03-29T05:49:59.232Z,4.97
2023-03-29T05:53:01.750Z,3.30
2023-03-29T05:56:04.956Z,2.00
2023-03-29T05:59:08.324Z,1.88
2023-03-29T06:02:11.576Z,3.25
2023-03-29T06:05:16.014Z,3.45
2023-03-29T06:08:18.618Z,2.85
2023-03-29T06:11:22.227Z,3.50
2023-03-29T06:14:24.899Z,2.80
2023-03-29T06:17:27.927Z,2.63
2023-03-29T06:20:31.842Z,2.20
2023-03-29T06:23:34.701Z,3.13
2023-03-29T06:26:37.458Z,2.38
2023-03-29T06:29:40.227Z,2.80
2023-03-29T06:32:42.924Z,3.20
2023-03-29T06:35:47.497Z,3.95
2023-03-29T06:38:50.052Z,5.03
2023-03-29T06:41:52.610Z,3.40
2023-03-29T06:44:55.140Z,3.22
2023-03-29T06:47:57.726Z,3.40
2023-03-29T06:51:01.790Z,3.95
2023-03-29T06:54:05.345Z,4.50
2023-03-29T06:57:07.956Z,3.95
2023-03-29T07:00:18.205Z,4.10
2023-03-29T07:03:24.551Z,3.25
2023-03-29T07:06:28.451Z,5.45
2023-03-29T07:09:31.371Z,4.22
2023-03-29T07:12:34.193Z,3.50
2023-03-29T07:15:37.039Z,4.93
2023-03-29T07:18:41.257Z,3.65
2023-03-29T07:21:45.182Z,3.15
2023-03-29T07:24:49.276Z,3.90
2023-03-29T07:27:52.915Z,3.25
2023-03-29T07:31:03.145Z,4.22
2023-03-29T07:34:10.590Z,3.65
2023-03-29T07:37:14.502Z,5.32
2023-03-29T07:40:19.528Z,4.93
2023-03-29T07:43:22.269Z,3.15
2023-03-29T07:46:24.871Z,4.40
2023-03-29T07:49:27.498Z,6.68
2023-03-29T07:52:31.501Z,6.47
2023-03-29T07:55:34.036Z,5.68
2023-03-29T07:58:37.641Z,6.63
2023-03-29T08:01:41.112Z,7.63
2023-03-29T08:04:43.778Z,7.75
2023-03-29T08:07:47.816Z,5.05
2023-03-29T08:10:50.359Z,5.18
2023-03-29T08:13:52.999Z,5.25
2023-03-29T08:16:55.688Z,6.25
2023-03-29T08:19:58.297Z,4.95
2023-03-29T08:23:02.175Z,5.68
2023-03-29T08:26:04.904Z,7.97
2023-03-29T08:29:08.288Z,4.35
2023-03-29T08:32:11.436Z,5.88
2023-03-29T08:35:14.005Z,5.53
2023-03-29T08:38:17.892Z,4.25
2023-03-29T08:41:27.773Z,8.00
2023-03-29T08:44:43.841Z,8.57
2023-03-29T08:47:49.931Z,4.28
2023-03-29T08:50:53.729Z,5.28
2023-03-29T08:53:58.826Z,6.97
2023-03-29T08:57:02.967Z,3.72
2023-03-29T09:00:07.222Z,6.00
2023-03-29T09:03:11.336Z,5.68
2023-03-29T09:06:14.096Z,7.85
2023-03-29T09:09:19.718Z,9.85
2023-03-29T09:12:27.313Z,8.98
2023-03-29T09:15:31.019Z,7.90
2023-03-29T09:18:37.761Z,4.88
2023-03-29T09:21:43.251Z,4.93
2023-03-29T09:24:54.081Z,4.93
2023-03-29T09:27:59.181Z,5.65
2023-03-29T09:31:05.068Z,7.97
2023-03-29T09:34:10.665Z,4.85
2023-03-29T09:37:15.077Z,4.72
2023-03-29T09:40:20.914Z,4.50
2023-03-29T09:43:29.691Z,4.85
2023-03-29T09:46:37.348Z,5.00
2023-03-29T09:49:41.652Z,5.28
2023-03-29T09:52:44.255Z,6.55
2023-03-29T09:55:50.385Z,7.93
2023-03-29T09:58:53.109Z,4.55
2023-03-29T10:01:55.739Z,5.78
2023-03-29T10:05:00.558Z,3.92
2023-03-29T10:08:19.889Z,4.35
2023-03-29T10:11:26.917Z,4.05
2023-03-29T10:14:33.253Z,5.63
2023-03-29T10:17:39.305Z,4.68
2023-03-29T10:20:41.871Z,3.17
2023-03-29T10:23:44.882Z,4.13
2023-03-29T10:26:49.315Z,5.38
2023-03-29T10:29:51.960Z,4.60
2023-03-29T10:32:57.844Z,5.45
2023-03-29T10:36:00.999Z,7.72
2023-03-29T10:39:05.991Z,5.07
2023-03-29T10:42:11.508Z,5.40
2023-03-29T10:45:20.331Z,11.63
2023-03-29T10:48:25.941Z,8.73
2023-03-29T10:51:30.111Z,6.60
2023-03-29T10:54:32.675Z,11.50
2023-03-29T10:57:39.981Z,12.38
2023-03-29T11:00:44.447Z,8.23
2023-03-29T11:04:08.568Z,12.57
2023-03-29T11:07:23.286Z,11.45
2023-03-29T11:10:32.768Z,9.65
2023-03-29T11:13:39.498Z,7.15
2023-03-29T11:16:44.605Z,7.40
2023-03-29T11:19:56.420Z,7.38
2023-03-29T11:23:03.783Z,6.22
2023-03-29T11:26:11.210Z,6.38
2023-03-29T11:32:21.520Z,11.35
2023-03-29T11:35:31.271Z,6.75
2023-03-29T11:38:36.103Z,7.72
2023-03-29T11:41:39.459Z,6.35
2023-03-29T11:44:43.813Z,5.05
2023-03-29T11:47:46.599Z,4.90
2023-03-29T11:50:51.710Z,6.70
2023-03-29T11:53:57.616Z,3.58
2023-03-29T11:57:02.869Z,5.38
2023-03-29T12:00:08.707Z,5.25
2023-03-29T12:03:13.814Z,5.50
2023-03-29T12:06:18.440Z,7.80
2023-03-29T12:09:26.512Z,4.75
2023-03-29T12:12:30.518Z,5.82
2023-03-29T12:15:36.399Z,4.95
2023-03-29T12:18:40.865Z,4.88
2023-03-29T12:21:43.429Z,4.07
2023-03-29T12:24:46.158Z,5.68
2023-03-29T12:27:53.755Z,5.05
2023-03-29T12:31:00.798Z,4.57
2023-03-29T12:34:34.967Z,4.50
2023-03-29T12:37:42.341Z,9.75
2023-03-29T12:40:46.041Z,6.07
2023-03-29T12:43:48.641Z,5.47
2023-03-29T12:46:54.369Z,9.07
2023-03-29T12:49:57.536Z,5.45
2023-03-29T12:53:04.419Z,5.35
2023-03-29T12:56:13.346Z,4.57
2023-03-29T12:59:26.958Z,5.97
2023-03-29T13:02:39.188Z,4.95
2023-03-29T13:05:41.964Z,2.42
2023-03-29T13:08:44.916Z,3.25
2023-03-29T13:11:52.830Z,3.58
2023-03-29T13:14:56.570Z,2.72
2023-03-29T13:18:04.895Z,4.25
2023-03-29T13:21:13.274Z,4.80
2023-03-29T13:24:26.439Z,3.80
2023-03-29T13:27:34.132Z,3.60
2023-03-29T13:30:44.119Z,1.98
2023-03-29T13:33:53.069Z,4.25
2023-03-29T13:37:00.759Z,3.08
2023-03-29T13:40:05.237Z,3.42
2023-03-29T13:43:10.284Z,6.55
2023-03-29T13:46:24.007Z,3.22
2023-03-29T13:49:28.799Z,3.50
2023-03-29T13:52:32.454Z,3.13
2023-03-29T13:55:38.488Z,5.45
2023-03-29T13:58:43.821Z,5.15
2023-03-29T14:01:50.411Z,5.18
2023-03-29T14:04:54.369Z,4.22
2023-03-29T14:07:56.980Z,3.40
2023-03-29T14:11:01.717Z,4.43
2023-03-29T14:14:05.738Z,6.00
2023-03-29T14:17:08.416Z,9.73
2023-03-29T14:20:16.571Z,7.63
2023-03-29T14:23:21.111Z,4.65
2023-03-29T14:26:24.277Z,8.30
2023-03-29T14:29:31.624Z,4.60
2023-03-29T14:35:38.137Z,7.40
2023-03-29T14:38:40.976Z,5.57
2023-03-29T14:41:47.016Z,8.20
2023-03-29T14:44:49.954Z,5.05
2023-03-29T14:47:52.888Z,4.50
2023-03-29T14:50:56.821Z,5.22
2023-03-29T14:53:59.513Z,3.83
2023-03-29T14:57:06.489Z,2.83
2023-03-29T15:00:19.792Z,2.78
2023-03-29T15:03:26.064Z,4.32
2023-03-29T15:06:30.161Z,5.70
2023-03-29T15:09:34.182Z,3.95
2023-03-29T15:12:36.763Z,6.93
2023-03-29T15:15:39.431Z,7.07
2023-03-29T15:18:42.310Z,4.88
2023-03-29T15:21:47.756Z,5.50
2023-03-29T15:24:50.759Z,7.30
2023-03-29T15:27:56.182Z,4.43
2023-03-29T15:31:07.932Z,3.15
2023-03-29T15:34:12.435Z,5.68
2023-03-29T15:37:16.625Z,4.97
2023-03-29T15:40:20.145Z,4.43
2023-03-29T15:43:23.505Z,5.22
2023-03-29T15:46:26.166Z,6.15
2023-03-29T15:49:28.900Z,4.25
2023-03-29T15:52:32.773Z,2.83
2023-03-29T15:55:35.301Z,3.70
2023-03-29T15:58:37.836Z,4.05
2023-03-29T16:01:41.652Z,4.85
2023-03-29T16:04:44.344Z,4.95
2023-03-29T16:07:48.292Z,4.18
2023-03-29T16:10:50.856Z,3.72
2023-03-29T16:13:53.492Z,2.10
2023-03-29T16:16:58.831Z,3.50
2023-03-29T16:20:01.596Z,3.05
2023-03-29T16:23:09.255Z,1.73
2023-03-29T16:26:12.709Z,1.17
2023-03-29T16:29:17.316Z,1.85
2023-03-29T16:32:20.217Z,1.35
2023-03-29T16:35:25.830Z,1.77
2023-03-29T16:38:29.700Z,3.35
2023-03-29T16:41:32.552Z,2.55
2023-03-29T16:44:35.227Z,2.05
2023-03-29T16:47:39.307Z,2.00
2023-03-29T16:50:42.016Z,2.30
2023-03-29T16:53:47.656Z,4.05
2023-03-29T16:56:50.617Z,2.45
2023-03-29T16:59:53.180Z,3.22
2023-03-29T17:02:56.013Z,1.95
2023-03-29T17:05:59.166Z,3.08
2023-03-29T17:09:03.240Z,3.75
2023-03-29T17:12:05.823Z,4.53
2023-03-29T17:15:09.153Z,2.63
2023-03-29T17:18:12.130Z,4.22
2023-03-29T17:21:14.796Z,2.50
2023-03-29T17:24:18.723Z,2.33
2023-03-29T17:27:21.580Z,2.70
2023-03-29T17:30:24.108Z,1.52
2023-03-29T17:33:26.790Z,2.70
2023-03-29T17:36:33.647Z,1.75
2023-03-29T17:39:37.797Z,2.13
2023-03-29T17:42:40.557Z,2.28
2023-03-29T17:45:43.096Z,2.42
2023-03-29T17:48:46.933Z,2.25
2023-03-29T17:51:49.469Z,2.05
2023-03-29T17:54:53.332Z,1.77
2023-03-29T17:57:56.289Z,2.42
2023-03-29T18:00:58.868Z,3.45
2023-03-29T18:04:01.582Z,2.47
2023-03-29T18:07:04.176Z,1.38
2023-03-29T18:10:09.158Z,2.88
2023-03-29T18:13:13.839Z,2.15
2023-03-29T18:16:16.449Z,2.67
2023-03-29T18:19:18.989Z,2.28
2023-03-29T18:22:21.603Z,2.58
2023-03-29T18:25:25.573Z,3.17
2023-03-29T18:28:28.150Z,3.05
2023-03-29T18:31:31.031Z,2.50
2023-03-29T18:34:34.254Z,3.05
2023-03-29T18:37:37.018Z,3.38
2023-03-29T18:40:40.911Z,4.55
2023-03-29T18:43:44.145Z,2.90
2023-03-29T18:46:47.960Z,2.13
2023-03-29T18:49:50.475Z,3.15
2023-03-29T18:52:53.002Z,2.40
2023-03-29T18:55:58.295Z,2.35
2023-03-29T18:59:05.026Z,2.50
2023-03-29T19:02:07.727Z,4.15
2023-03-29T19:05:10.738Z,3.28
2023-03-29T19:08:13.303Z,3.22
2023-03-29T19:11:17.181Z,3.67
2023-03-29T19:14:23.443Z,3.92
2023-03-29T19:17:27.235Z,3.70
2023-03-29T19:20:29.955Z,4.45
2023-03-29T19:23:32.539Z,3.85
2023-03-29T19:26:36.487Z,3.30
2023-03-29T19:29:39.105Z,2.75
2023-03-29T19:32:41.770Z,3.50
2023-03-29T19:35:44.624Z,5.15
2023-03-29T19:38:47.220Z,4.53
2023-03-29T19:41:51.293Z,3.67
2023-03-29T19:44:53.861Z,4.05
2023-03-29T19:47:56.561Z,2.78
2023-03-29T19:51:01.837Z,2.50
2023-03-29T19:54:06.512Z,5.40
2023-03-29T19:57:10.510Z,2.67
2023-03-29T20:00:14.936Z,2.90
2023-03-29T20:03:17.759Z,3.10
2023-03-29T20:06:20.883Z,2.28
2023-03-29T20:09:23.444Z,2.35
2023-03-29T20:12:27.434Z,5.20
2023-03-29T20:15:30.034Z,3.72
2023-03-29T20:18:32.629Z,4.72
2023-03-29T20:21:37.124Z,2.10
2023-03-29T20:24:39.643Z,3.90
2023-03-29T20:27:43.692Z,2.83
2023-03-29T20:30:50.966Z,4.72
2023-03-29T20:33:53.703Z,3.13
2023-03-29T20:37:00.589Z,3.58
2023-03-29T20:40:05.234Z,3.25
2023-03-29T20:43:13.000Z,3.20
2023-03-29T20:46:18.155Z,3.50
2023-03-29T20:49:26.158Z,2.72
2023-03-29T20:52:28.743Z,2.97
2023-03-29T20:55:33.022Z,4.40
2023-03-29T20:58:41.789Z,1.55
2023-03-29T21:01:44.387Z,2.15
2023-03-29T21:04:50.447Z,2.95
2023-03-29T21:07:54.497Z,3.88
2023-03-29T21:10:57.176Z,4.43
2023-03-29T21:14:01.284Z,3.63
2023-03-29T21:17:03.895Z,4.28
2023-03-29T21:20:09.872Z,2.40
2023-03-29T21:23:14.426Z,3.78
2023-03-29T21:26:16.980Z,5.05
2023-03-29T21:29:20.900Z,3.83
2023-03-29T21:32:23.486Z,4.28
2023-03-29T21:35:26.084Z,3.90
2023-03-29T21:38:28.724Z,2.75
2023-03-29T21:41:31.357Z,2.72
2023-03-29T21:44:35.241Z,1.67
2023-03-29T21:47:37.828Z,1.88
2023-03-29T21:50:40.440Z,2.42
2023-03-29T21:53:43.036Z,1.58
2023-03-29T21:56:47.620Z,1.45
2023-03-29T21:59:51.575Z,2.33
2023-03-29T22:02:54.218Z,1.42
2023-03-29T22:05:58.144Z,1.30
2023-03-29T22:09:00.722Z,2.17
2023-03-29T22:12:03.381Z,2.03
2023-03-29T22:15:08.483Z,3.28
2023-03-29T22:18:12.383Z,1.98
2023-03-29T22:21:16.065Z,2.45
2023-03-29T22:24:19.449Z,1.73
2023-03-29T22:27:22.732Z,2.40
2023-03-29T22:30:27.161Z,1.52
2023-03-29T22:33:29.719Z,1.58
2023-03-29T22:36:32.368Z,2.45
2023-03-29T22:39:35.561Z,2.00
2023-03-29T22:42:38.087Z,2.08
2023-03-29T22:45:42.009Z,2.50
2023-03-29T22:48:44.673Z,1.33
2023-03-29T22:51:47.241Z,1.88
2023-03-29T22:54:49.783Z,2.47
2023-03-29T22:57:52.612Z,2.28
2023-03-29T23:00:56.870Z,2.03
2023-03-29T23:03:59.438Z,1.20
2023-03-29T23:07:02.217Z,3.03
2023-03-29T23:10:06.388Z,1.80
2023-03-29T23:13:09.450Z,2.75
2023-03-29T23:16:13.382Z,2.67
2023-03-29T23:19:16.052Z,2.28
2023-03-29T23:22:18.629Z,1.30
2023-03-29T23:25:21.207Z,2.35
2023-03-29T23:28:24.856Z,2.58
2023-03-29T23:31:28.765Z,2.00
2023-03-29T23:34:31.304Z,1.92
2023-03-29T23:37:33.917Z,2.28
2023-03-29T23:40:36.451Z,2.85
2023-03-29T23:43:40.356Z,1.98
2023-03-29T23:46:44.368Z,1.90
2023-03-29T23:49:47.735Z,1.13
2023-03-29T23:52:51.403Z,1.73
2023-03-29T23:55:54.053Z,1.92
2023-03-29T23:58:56.649Z,1.52
